Aérodrome :
LOGIN :

S'inscrire | Disclaimer

   EN    FR    IT 

 










Légende :    VFR   VFR Marginal   IFR   IFR Intensif   IFR Très Intensif
Visi : 
Plafond : 
>= 8 km
>= 3000ft
5 à 8 km
1000 à 3000 ft
1500m à 5 km
500 à 1000 ft
800 à 1500m
200 à 500 ft
< 800m
< 200 ft
Symboles :   Orages  Brouillard  Fortes neiges  Fortes précipitations  Vent > 20 kt
SIGMETs :   Divers  Orages  Givrage  Turbulence  Onde Orograph.  Cendres Volcan.






- Altitude de l'aérodrome : 327 ft
- Code IATA : BHX


EGBB - Birmingham

DERNIER METAR :
  • 171850Z 32011KT 9999 SCT036 13/05 Q1008

METARs EXPIRÉS :
  • 171820Z 33006KT 280V010 9999 BKN033 13/07 Q1008
  • 171750Z 34009KT 9999 FEW030 BKN040 13/07 Q1008
  • 171720Z 33008KT 300V360 9999 SCT028TCU BKN037 13/08 Q1008
  • 171650Z VRB02KT 9999 SCT024TCU BKN039 12/08 Q1008
  • 171620Z 34004KT 300V020 9999 VCSH FEW035CB BKN048 12/09 Q1007

TAF AMD TAF EGBB
Valide du 17 à 18h jusqu'au 18 à 18h UTC


171705Z 1718/1818 26006KT 9999 SCT035
PROB40
TEMPO 1718/1721 7000 SHRA
TEMPO 1808/1818 7000 SHRA
PROB30
TEMPO 1810/1818 VRB15G25KT 3000 +SHRA TSGS BKN014 BKN020CB
ATIS : +44 121 780 0910



MET'MAP, la Météo Aéronautique d'un coup d'oeil ! - Copyright ORBIFLY Décembre 2007 - Disclaimer

ORBIFLY MET'MAP TEAM :

Programmation & Développement : Alexandra Zaïnal
Sur une idée originale de : Baudouin d'Aumeries
Assistance à la programmation : Marc-Olivier Méhu
Soutien technique & logistique : Manuel Goepfert

Contact : metmap@orbifly.com




SOURCES & CREDITS :

   NOAA